New Haven, Indiana
Current Conditions -  °F | °C
As of 5:54 AM on Sunday 23 Nov 2014 (Local Time) from KFWA Reporting Station
Overcast Overcast  
Wind Chill: 41°   Ceiling: 4400
Heat Index: 45°   Visibility: 10mi
Dew Point: 42°   Wind: 7mph
Humidity: 90%   Direction: 150°SSE
Pressure: 29.92"   Gusts: NA
Location:  41.07°N, 85.02°W
Report Text: KFWA 231054Z 15006KT 10SM OVC044 07/06 A2992 RMK AO2 RAE44 SLP135 P0000 T00720056
Loading
Personal Weather Stations






























Interactive Weather Map New forecast layout! Learn more

10-Day Weather Forecast

Advertisements
Track Severe Weather on mobile